createdAt,value
2023-02-24T00:02:06.263Z,100787.72
2023-02-24T00:04:41.245Z,100780.38
2023-02-24T00:07:11.143Z,100778.56
2023-02-24T00:09:41.350Z,100770.91
2023-02-24T00:12:13.326Z,100777.97
2023-02-24T00:14:45.201Z,100764.94
2023-02-24T00:17:15.045Z,100775.16
2023-02-24T00:19:42.474Z,100770.31
2023-02-24T00:22:13.248Z,100762.69
2023-02-24T00:24:40.251Z,100762.53
2023-02-24T00:27:11.960Z,100761.13
2023-02-24T00:29:41.972Z,100760.25
2023-02-24T00:32:14.811Z,100759.41
2023-02-24T00:34:43.155Z,100761.22
2023-02-24T00:37:15.414Z,100751.75
2023-02-24T00:39:44.246Z,100748.91
2023-02-24T00:42:15.849Z,100743.84
2023-02-24T00:44:48.676Z,100741.97
2023-02-24T00:47:19.703Z,100738.00
2023-02-24T00:49:50.369Z,100726.50
2023-02-24T00:52:22.172Z,100731.75
2023-02-24T00:54:54.220Z,100726.66
2023-02-24T00:57:23.474Z,100727.81
2023-02-24T00:59:52.609Z,100719.16
2023-02-24T01:02:20.548Z,100715.06
2023-02-24T01:04:49.868Z,100713.91
2023-02-24T01:07:19.605Z,100712.50
2023-02-24T01:09:50.501Z,100705.69
2023-02-24T01:12:35.829Z,100709.41
2023-02-24T01:15:03.156Z,100706.81
2023-02-24T01:17:35.915Z,100697.16
2023-02-24T01:20:15.892Z,100701.28
2023-02-24T01:22:53.527Z,100692.94
2023-02-24T01:25:20.628Z,100696.91
2023-02-24T01:27:50.651Z,100681.91
2023-02-24T01:30:18.525Z,100682.75
2023-02-24T01:32:47.072Z,100696.50
2023-02-24T01:35:14.660Z,100693.94
2023-02-24T01:37:46.049Z,100682.06
2023-02-24T01:40:18.664Z,100676.97
2023-02-24T01:42:47.740Z,100667.47
2023-02-24T01:45:21.864Z,100658.97
2023-02-24T01:47:50.838Z,100658.97
2023-02-24T01:50:21.986Z,100646.22
2023-02-24T01:52:51.980Z,100652.16
2023-02-24T01:55:28.934Z,100641.41
2023-02-24T01:58:00.959Z,100637.44
2023-02-24T02:00:45.087Z,100628.66
2023-02-24T02:03:30.058Z,100632.22
2023-02-24T02:06:13.075Z,100624.69
2023-02-24T02:08:42.413Z,100629.94
2023-02-24T02:11:21.486Z,100625.13
2023-02-24T02:13:51.685Z,100607.84
2023-02-24T02:16:47.197Z,100601.19
2023-02-24T02:19:13.989Z,100608.00
2023-02-24T02:22:02.425Z,100603.72
2023-02-24T02:24:48.460Z,100602.03
2023-02-24T02:27:36.940Z,100589.44
2023-02-24T02:30:43.835Z,100591.00
2023-02-24T02:33:31.270Z,100589.59
2023-02-24T02:36:14.032Z,100587.03
2023-02-24T02:38:53.239Z,100585.63
2023-02-24T02:42:16.598Z,100591.00
2023-02-24T02:45:14.500Z,100578.84
2023-02-24T02:48:02.397Z,100574.59
2023-02-24T02:50:43.508Z,100568.06
2023-02-24T02:53:32.751Z,100562.13
2023-02-24T02:56:31.911Z,100552.38
2023-02-24T02:59:04.629Z,100557.03
2023-02-24T03:01:41.614Z,100541.19
2023-02-24T03:04:17.612Z,100546.13
2023-02-24T03:06:53.174Z,100537.78
2023-02-24T03:09:38.801Z,100534.41
2023-02-24T03:12:11.710Z,100530.41
2023-02-24T03:14:51.162Z,100529.41
2023-02-24T03:17:30.684Z,100521.94
2023-02-24T03:20:13.371Z,100519.97
2023-02-24T03:23:08.148Z,100508.50
2023-02-24T03:25:50.388Z,100500.97
2023-02-24T03:28:37.548Z,100498.44
2023-02-24T03:31:19.293Z,100502.13
2023-02-24T03:34:05.487Z,100497.03
2023-02-24T03:36:34.958Z,100485.56
2023-02-24T03:39:02.684Z,100488.25
2023-02-24T03:41:46.190Z,100479.69
2023-02-24T03:44:14.706Z,100469.41
2023-02-24T03:46:42.663Z,100474.34
2023-02-24T03:49:12.967Z,100465.59
2023-02-24T03:51:44.839Z,100464.94
2023-02-24T03:54:54.399Z,100451.88
2023-02-24T03:58:04.738Z,100460.81
2023-02-24T04:00:41.431Z,100455.44
2023-02-24T04:03:19.940Z,100453.00
2023-02-24T04:06:14.249Z,100453.47
2023-02-24T04:09:21.820Z,100445.25
2023-02-24T04:12:18.919Z,100437.88
2023-02-24T04:15:23.831Z,100433.09
2023-02-24T04:18:22.776Z,100424.56
2023-02-24T04:20:53.640Z,100423.03
2023-02-24T04:23:27.296Z,100409.84
2023-02-24T04:25:57.188Z,100409.44
2023-02-24T04:28:25.949Z,100406.75
2023-02-24T04:31:10.813Z,100403.75
2023-02-24T04:33:43.114Z,100399.66
2023-02-24T04:36:13.025Z,100392.06
2023-02-24T04:38:40.557Z,100379.34
2023-02-24T04:41:09.985Z,100380.78
2023-02-24T04:43:46.236Z,100363.66
2023-02-24T04:46:13.328Z,100358.53
2023-02-24T04:48:40.364Z,100362.56
2023-02-24T04:51:07.306Z,100346.72
2023-02-24T04:53:34.321Z,100343.19
2023-02-24T04:56:09.119Z,100335.50
2023-02-24T04:58:46.473Z,100335.47
2023-02-24T05:01:15.683Z,100324.72
2023-02-24T05:03:45.806Z,100327.31
2023-02-24T05:06:20.533Z,100315.38
2023-02-24T05:08:47.477Z,100310.53
2023-02-24T05:11:16.641Z,100303.31
2023-02-24T05:13:46.948Z,100300.56
2023-02-24T05:16:17.007Z,100296.56
2023-02-24T05:18:46.482Z,100286.00
2023-02-24T05:21:35.687Z,100287.69
2023-02-24T05:24:08.390Z,100272.72
2023-02-24T05:26:41.875Z,100266.88
2023-02-24T05:29:11.048Z,100263.19
2023-02-24T05:31:38.316Z,100253.03
2023-02-24T05:34:08.245Z,100262.63
2023-02-24T05:36:45.923Z,100254.78
2023-02-24T05:39:19.290Z,100249.25
2023-02-24T05:41:49.051Z,100236.69
2023-02-24T05:44:23.508Z,100224.47
2023-02-24T05:46:58.235Z,100232.94
2023-02-24T05:49:31.460Z,100226.13
2023-02-24T05:52:08.704Z,100224.25
2023-02-24T05:54:39.977Z,100219.09
2023-02-24T05:57:20.937Z,100210.34
2023-02-24T05:59:51.556Z,100207.78
2023-02-24T06:02:27.605Z,100199.56
2023-02-24T06:04:55.705Z,100194.41
2023-02-24T06:07:28.405Z,100196.09
2023-02-24T06:09:58.214Z,100198.69
2023-02-24T06:12:29.240Z,100193.41
2023-02-24T06:14:58.141Z,100190.69
2023-02-24T06:17:29.879Z,100180.81
2023-02-24T06:19:56.844Z,100177.09
2023-02-24T06:22:26.758Z,100181.34
2023-02-24T06:24:56.936Z,100171.19
2023-02-24T06:27:27.158Z,100169.66
2023-02-24T06:29:59.606Z,100175.84
2023-02-24T06:32:26.936Z,100168.22
2023-02-24T06:34:57.445Z,100157.09
2023-02-24T06:37:24.885Z,100158.63
2023-02-24T06:39:53.928Z,100144.94
2023-02-24T06:42:21.010Z,100148.41
2023-02-24T06:44:48.861Z,100144.34
2023-02-24T06:47:18.137Z,100144.47
2023-02-24T06:49:45.207Z,100128.50
2023-02-24T06:52:19.034Z,100131.25
2023-02-24T06:54:53.295Z,100132.16
2023-02-24T06:57:24.779Z,100125.97
2023-02-24T06:59:56.159Z,100120.19
2023-02-24T07:02:26.741Z,100120.16
2023-02-24T07:04:58.875Z,100118.28
2023-02-24T07:07:29.143Z,100107.47
2023-02-24T07:09:58.964Z,100107.72
2023-02-24T07:12:26.447Z,100108.81
2023-02-24T07:14:58.963Z,100100.22
2023-02-24T07:17:26.468Z,100091.97
2023-02-24T07:19:57.969Z,100095.19
2023-02-24T07:22:25.629Z,100098.56
2023-02-24T07:25:00.398Z,100093.50
2023-02-24T07:27:30.181Z,100096.28
2023-02-24T07:29:59.194Z,100091.06
2023-02-24T07:32:26.273Z,100088.91
2023-02-24T07:34:55.767Z,100082.09
2023-02-24T07:37:24.396Z,100070.97
2023-02-24T07:39:52.087Z,100078.97
2023-02-24T07:42:22.517Z,100061.63
2023-02-24T07:44:50.860Z,100068.47
2023-02-24T07:47:17.904Z,100063.28
2023-02-24T07:49:51.288Z,100052.97
2023-02-24T07:52:21.402Z,100051.66
2023-02-24T07:54:49.713Z,100047.13
2023-02-24T07:57:19.199Z,100040.22
2023-02-24T07:59:48.626Z,100037.81
2023-02-24T08:02:18.503Z,100035.06
2023-02-24T08:04:51.521Z,100027.81
2023-02-24T08:07:24.824Z,100025.59
2023-02-24T08:10:14.623Z,100016.75
2023-02-24T08:12:43.008Z,100011.81
2023-02-24T08:15:17.495Z,100005.44
2023-02-24T08:17:47.670Z,100013.09
2023-02-24T08:20:15.188Z,100007.28
2023-02-24T08:22:46.634Z,100007.75
2023-02-24T08:25:22.663Z,100000.47
2023-02-24T08:28:12.153Z,100002.81
2023-02-24T08:30:47.690Z,99988.69
2023-02-24T08:33:21.585Z,99985.03
2023-02-24T08:36:04.453Z,99988.69
2023-02-24T08:38:40.468Z,99984.06
2023-02-24T08:41:18.259Z,99973.06
2023-02-24T08:43:46.655Z,99968.53
2023-02-24T08:46:18.494Z,99955.88
2023-02-24T08:48:55.784Z,99952.78
2023-02-24T08:51:37.023Z,99957.31
2023-02-24T08:54:11.035Z,99937.84
2023-02-24T08:56:49.101Z,99931.22
2023-02-24T08:59:29.598Z,99925.59
2023-02-24T09:02:31.318Z,99923.03
2023-02-24T09:05:05.530Z,99919.53
2023-02-24T09:07:38.749Z,99922.63
2023-02-24T09:10:20.375Z,99895.31
2023-02-24T09:12:53.586Z,99896.28
2023-02-24T09:15:25.622Z,99893.59
2023-02-24T09:18:01.369Z,99867.56
2023-02-24T09:20:50.556Z,99856.28
2023-02-24T09:23:20.746Z,99863.03
2023-02-24T09:25:54.476Z,99841.22
2023-02-24T09:28:26.745Z,99858.97
2023-02-24T09:31:00.261Z,99833.88
2023-02-24T09:33:42.404Z,99836.56
2023-02-24T09:36:27.895Z,99833.88
2023-02-24T09:38:59.274Z,99833.19
2023-02-24T09:42:02.643Z,99823.16
2023-02-24T09:44:41.198Z,99821.19
2023-02-24T09:47:39.845Z,99823.03
2023-02-24T09:50:55.519Z,99825.97
2023-02-24T09:53:20.713Z,99821.97
2023-02-24T09:56:26.468Z,99810.19
2023-02-24T09:59:30.301Z,99799.09
2023-02-24T10:02:44.198Z,99797.84
2023-02-24T10:05:27.890Z,99792.03
2023-02-24T10:08:00.880Z,99788.63
2023-02-24T10:10:36.326Z,99774.78
2023-02-24T10:13:15.323Z,99783.31
2023-02-24T10:15:59.315Z,99769.41
2023-02-24T10:18:45.905Z,99776.47
2023-02-24T10:21:30.763Z,99763.66
2023-02-24T10:24:03.221Z,99750.75
2023-02-24T10:26:51.287Z,99763.41
2023-02-24T10:29:44.829Z,99763.34
2023-02-24T10:32:34.080Z,99766.53
2023-02-24T10:35:06.301Z,99756.97
2023-02-24T10:37:34.234Z,99747.94
2023-02-24T10:40:09.934Z,99743.69
2023-02-24T10:42:45.991Z,99755.91
2023-02-24T10:45:26.218Z,99740.56
2023-02-24T10:47:59.492Z,99729.84
2023-02-24T10:50:34.807Z,99726.63
2023-02-24T10:53:29.794Z,99735.06
2023-02-24T10:56:27.910Z,99709.06
2023-02-24T10:59:24.708Z,99713.41
2023-02-24T11:01:59.093Z,99695.34
2023-02-24T11:05:04.630Z,99685.47
2023-02-24T11:07:45.298Z,99698.19
2023-02-24T11:10:33.100Z,99690.47
2023-02-24T11:13:20.339Z,99680.56
2023-02-24T11:16:14.088Z,99683.13
2023-02-24T11:18:50.223Z,99679.13
2023-02-24T11:21:18.184Z,99675.06
2023-02-24T11:24:06.215Z,99667.09
2023-02-24T11:26:41.288Z,99659.38
2023-02-24T11:29:31.420Z,99664.78
2023-02-24T11:32:55.931Z,99654.06
2023-02-24T11:35:41.897Z,99647.94
2023-02-24T11:38:27.953Z,99640.16
2023-02-24T11:41:41.816Z,99638.28
2023-02-24T11:44:31.478Z,99634.13
2023-02-24T11:47:07.745Z,99636.28
2023-02-24T11:50:24.612Z,99634.09
2023-02-24T11:52:54.749Z,99614.06
2023-02-24T11:55:36.143Z,99607.75
2023-02-24T11:58:38.125Z,99607.28
2023-02-24T12:01:19.667Z,99604.59
2023-02-24T12:04:06.967Z,99601.59
2023-02-24T12:06:44.084Z,99596.06
2023-02-24T12:09:20.454Z,99581.13
2023-02-24T12:12:20.128Z,99582.28
2023-02-24T12:14:57.357Z,99568.91
2023-02-24T12:17:49.495Z,99564.22
2023-02-24T12:20:30.609Z,99557.25
2023-02-24T12:23:15.666Z,99553.59
2023-02-24T12:26:13.438Z,99542.38
2023-02-24T12:29:01.641Z,99549.22
2023-02-24T12:31:53.456Z,99547.03
2023-02-24T12:34:50.132Z,99536.72
2023-02-24T12:37:24.479Z,99530.72
2023-02-24T12:40:15.942Z,99528.56
2023-02-24T12:42:50.947Z,99523.94
2023-02-24T12:45:46.254Z,99527.09
2023-02-24T12:49:00.179Z,99523.00
2023-02-24T12:51:45.886Z,99514.00
2023-02-24T12:54:54.516Z,99508.84
2023-02-24T12:58:02.616Z,99504.50
2023-02-24T13:01:00.097Z,99494.72
2023-02-24T13:03:54.849Z,99483.53
2023-02-24T13:07:01.436Z,99487.72
2023-02-24T13:09:45.251Z,99481.84
2023-02-24T13:12:20.967Z,99485.38
2023-02-24T13:14:48.477Z,99470.09
2023-02-24T13:17:20.043Z,99467.38
2023-02-24T13:19:48.668Z,99451.28
2023-02-24T13:22:18.755Z,99452.63
2023-02-24T13:24:56.666Z,99449.25
2023-02-24T13:27:29.384Z,99446.25
2023-02-24T13:30:01.139Z,99448.09
2023-02-24T13:32:32.365Z,99438.88
2023-02-24T13:35:16.386Z,99442.38
2023-02-24T13:37:47.267Z,99446.25
2023-02-24T13:40:22.367Z,99434.66
2023-02-24T13:43:01.457Z,99422.06
2023-02-24T13:45:39.778Z,99434.50
2023-02-24T13:48:45.513Z,99412.66
2023-02-24T13:51:12.364Z,99404.75
2023-02-24T13:54:16.609Z,99406.06
2023-02-24T13:56:52.689Z,99395.50
2023-02-24T14:00:12.174Z,99407.91
2023-02-24T14:02:44.209Z,99397.50
2023-02-24T14:05:30.135Z,99392.13
2023-02-24T14:07:57.964Z,99398.19
2023-02-24T14:10:29.264Z,99395.13
2023-02-24T14:13:19.353Z,99383.28
2023-02-24T14:15:47.666Z,99370.59
2023-02-24T14:18:26.659Z,99378.66
2023-02-24T14:20:56.261Z,99384.38
2023-02-24T14:23:35.417Z,99366.31
2023-02-24T14:26:08.353Z,99361.28
2023-02-24T14:28:39.685Z,99369.22
2023-02-24T14:31:15.040Z,99364.28
2023-02-24T14:33:48.275Z,99357.03
2023-02-24T14:36:21.345Z,99357.06
2023-02-24T14:39:12.410Z,99345.03
2023-02-24T14:41:42.048Z,99344.69
2023-02-24T14:44:24.184Z,99347.69
2023-02-24T14:46:57.401Z,99341.56
2023-02-24T14:49:28.351Z,99330.94
2023-02-24T14:52:28.754Z,99330.63
2023-02-24T14:55:02.104Z,99326.00
2023-02-24T14:57:35.108Z,99322.69
2023-02-24T15:00:26.639Z,99320.53
2023-02-24T15:03:32.074Z,99324.38
2023-02-24T15:06:07.032Z,99314.97
2023-02-24T15:08:48.774Z,99310.25
2023-02-24T15:11:15.702Z,99312.19
2023-02-24T15:13:53.099Z,99311.13
2023-02-24T15:16:24.452Z,99310.78
2023-02-24T15:18:55.692Z,99300.72
2023-02-24T15:21:31.693Z,99299.72
2023-02-24T15:24:18.999Z,99301.69
2023-02-24T15:27:01.511Z,99304.69
2023-02-24T15:29:31.196Z,99293.91
2023-02-24T15:32:00.878Z,99288.88
2023-02-24T15:34:36.076Z,99281.34
2023-02-24T15:37:15.729Z,99272.84
2023-02-24T15:39:44.480Z,99268.78
2023-02-24T15:42:33.577Z,99261.47
2023-02-24T15:45:03.529Z,99249.75
2023-02-24T15:47:43.775Z,99251.00
2023-02-24T15:50:12.832Z,99246.81
2023-02-24T15:52:41.502Z,99239.19
2023-02-24T15:55:15.271Z,99238.97
2023-02-24T15:57:42.879Z,99237.53
2023-02-24T16:00:17.946Z,99231.31
2023-02-24T16:02:45.617Z,99235.03
2023-02-24T16:05:16.710Z,99222.53
2023-02-24T16:07:48.920Z,99223.56
2023-02-24T16:10:24.812Z,99226.41
2023-02-24T16:12:56.192Z,99222.00
2023-02-24T16:15:31.078Z,99231.84
2023-02-24T16:18:02.298Z,99226.81
2023-02-24T16:20:31.777Z,99230.91
2023-02-24T16:23:04.271Z,99228.94
2023-02-24T16:25:40.606Z,99227.88
2023-02-24T16:28:13.442Z,99219.13
2023-02-24T16:30:40.583Z,99229.16
2023-02-24T16:33:13.569Z,99228.38
2023-02-24T16:35:44.738Z,99218.53
2023-02-24T16:38:15.176Z,99219.81
2023-02-24T16:40:47.062Z,99217.72
2023-02-24T16:43:18.771Z,99221.97
2023-02-24T16:45:46.357Z,99224.88
2023-02-24T16:48:24.316Z,99225.31
2023-02-24T16:50:51.674Z,99234.44
2023-02-24T16:53:22.808Z,99230.53
2023-02-24T16:55:52.978Z,99229.50
2023-02-24T16:58:23.568Z,99224.91
2023-02-24T17:00:53.691Z,99231.78
2023-02-24T17:03:29.940Z,99226.78
2023-02-24T17:05:59.268Z,99231.50
2023-02-24T17:08:31.172Z,99223.06
2023-02-24T17:11:00.751Z,99224.25
2023-02-24T17:13:27.734Z,99227.13
2023-02-24T17:15:58.034Z,99235.06
2023-02-24T17:18:28.117Z,99229.97
2023-02-24T17:20:57.641Z,99232.66
2023-02-24T17:23:27.621Z,99235.94
2023-02-24T17:26:03.626Z,99236.97
2023-02-24T17:28:33.565Z,99235.56
2023-02-24T17:31:00.646Z,99233.31
2023-02-24T17:33:28.794Z,99244.78
2023-02-24T17:35:55.870Z,99241.06
2023-02-24T17:38:27.476Z,99246.22
2023-02-24T17:40:57.526Z,99235.03
2023-02-24T17:43:27.149Z,99235.47
2023-02-24T17:45:54.853Z,99229.94
2023-02-24T17:48:24.862Z,99229.16
2023-02-24T17:50:52.149Z,99244.63
2023-02-24T17:53:21.647Z,99245.03
2023-02-24T17:56:02.344Z,99230.34
2023-02-24T17:58:33.363Z,99239.44
2023-02-24T18:01:05.645Z,99237.25
2023-02-24T18:03:37.284Z,99239.28
2023-02-24T18:06:12.093Z,99239.09
2023-02-24T18:08:42.345Z,99238.56
2023-02-24T18:11:14.374Z,99232.38
2023-02-24T18:13:41.462Z,99230.69
2023-02-24T18:16:14.532Z,99232.28
2023-02-24T18:18:41.604Z,99221.09
2023-02-24T18:21:11.141Z,99228.81
2023-02-24T18:23:41.321Z,99217.88
2023-02-24T18:26:11.777Z,99220.94
2023-02-24T18:28:39.123Z,99222.72
2023-02-24T18:31:18.874Z,99217.34
2023-02-24T18:33:46.293Z,99220.16
2023-02-24T18:36:15.200Z,99220.19
2023-02-24T18:38:42.521Z,99219.25
2023-02-24T18:41:23.546Z,99228.75
2023-02-24T18:43:56.014Z,99225.81
2023-02-24T18:46:24.929Z,99226.53
2023-02-24T18:48:59.008Z,99231.56
2023-02-24T18:51:29.319Z,99233.78
2023-02-24T18:54:01.555Z,99227.06
2023-02-24T18:56:31.213Z,99230.13
2023-02-24T18:59:02.500Z,99228.59
2023-02-24T19:01:32.670Z,99220.69
2023-02-24T19:04:00.791Z,99224.81
2023-02-24T19:06:30.978Z,99227.41
2023-02-24T19:09:00.292Z,99220.44
2023-02-24T19:11:29.820Z,99226.06
2023-02-24T19:13:58.373Z,99222.44
2023-02-24T19:16:26.040Z,99225.16
2023-02-24T19:18:56.461Z,99227.44
2023-02-24T19:21:24.841Z,99229.00
2023-02-24T19:23:54.486Z,99241.09
2023-02-24T19:26:30.004Z,99234.56
2023-02-24T19:28:58.680Z,99225.47
2023-02-24T19:31:29.236Z,99222.97
2023-02-24T19:34:05.344Z,99235.09
2023-02-24T19:36:34.934Z,99233.66
2023-02-24T19:39:05.839Z,99233.66
2023-02-24T19:41:38.511Z,99227.88
2023-02-24T19:44:07.619Z,99233.53
2023-02-24T19:46:36.344Z,99228.34
2023-02-24T19:49:04.354Z,99227.84
2023-02-24T19:51:31.403Z,99222.94
2023-02-24T19:54:03.302Z,99236.34
2023-02-24T19:56:35.346Z,99235.88
2023-02-24T19:59:05.514Z,99235.03
2023-02-24T20:01:32.780Z,99236.13
2023-02-24T20:04:02.917Z,99233.91
2023-02-24T20:06:43.026Z,99233.59
2023-02-24T20:09:17.233Z,99223.31
2023-02-24T20:11:45.779Z,99224.34
2023-02-24T20:14:17.555Z,99221.03
2023-02-24T20:16:47.864Z,99223.19
2023-02-24T20:19:15.537Z,99221.28
2023-02-24T20:21:49.966Z,99234.75
2023-02-24T20:24:20.781Z,99235.88
2023-02-24T20:26:52.441Z,99237.69
2023-02-24T20:29:25.065Z,99236.22
2023-02-24T20:31:52.646Z,99237.09
2023-02-24T20:34:22.462Z,99235.16
2023-02-24T20:36:49.561Z,99236.97
2023-02-24T20:39:19.751Z,99239.34
2023-02-24T20:41:51.894Z,99228.00
2023-02-24T20:44:19.072Z,99225.28
2023-02-24T20:46:46.428Z,99231.94
2023-02-24T20:49:17.545Z,99235.03
2023-02-24T20:51:47.477Z,99241.97
2023-02-24T20:54:19.350Z,99244.97
2023-02-24T20:56:48.822Z,99237.09
2023-02-24T20:59:22.121Z,99233.72
2023-02-24T21:01:50.927Z,99225.22
2023-02-24T21:04:20.931Z,99225.16
2023-02-24T21:06:54.332Z,99232.34
2023-02-24T21:09:21.276Z,99239.00
2023-02-24T21:11:50.848Z,99226.44
2023-02-24T21:14:17.880Z,99232.72
2023-02-24T21:16:47.159Z,99248.44
2023-02-24T21:19:14.070Z,99232.34
2023-02-24T21:21:40.953Z,99236.47
2023-02-24T21:24:08.438Z,99233.00
2023-02-24T21:26:35.534Z,99233.59
2023-02-24T21:29:02.768Z,99240.06
2023-02-24T21:31:29.881Z,99227.50
2023-02-24T21:33:57.035Z,99232.03
2023-02-24T21:36:26.206Z,99230.03
2023-02-24T21:38:54.107Z,99233.59
2023-02-24T21:41:22.103Z,99227.75
2023-02-24T21:43:55.328Z,99232.28
2023-02-24T21:46:28.221Z,99236.72
2023-02-24T21:48:57.696Z,99234.00
2023-02-24T21:51:26.893Z,99234.00
2023-02-24T21:53:57.286Z,99233.84
2023-02-24T21:56:30.460Z,99248.66
2023-02-24T21:59:03.879Z,99240.69
2023-02-24T22:01:37.197Z,99238.06
2023-02-24T22:04:10.415Z,99245.72
2023-02-24T22:06:39.776Z,99244.50
2023-02-24T22:09:10.235Z,99242.38
2023-02-24T22:11:43.137Z,99249.00
2023-02-24T22:14:12.543Z,99246.47
2023-02-24T22:16:40.651Z,99243.41
2023-02-24T22:19:07.896Z,99249.88
2023-02-24T22:21:34.937Z,99247.75
2023-02-24T22:24:04.008Z,99248.56
2023-02-24T22:26:33.987Z,99250.47
2023-02-24T22:29:04.884Z,99249.16
2023-02-24T22:31:34.483Z,99259.34
2023-02-24T22:34:01.839Z,99267.75
2023-02-24T22:36:33.609Z,99274.66
2023-02-24T22:39:01.863Z,99276.78
2023-02-24T22:41:33.391Z,99278.06
2023-02-24T22:44:04.488Z,99268.84
2023-02-24T22:46:37.344Z,99275.72
2023-02-24T22:49:05.123Z,99291.59
2023-02-24T22:51:34.941Z,99286.88
2023-02-24T22:54:02.049Z,99295.34
2023-02-24T22:56:32.159Z,99292.94
2023-02-24T22:59:00.604Z,99297.00
2023-02-24T23:01:34.903Z,99299.72
2023-02-24T23:04:05.885Z,99303.91
2023-02-24T23:06:36.401Z,99308.72
2023-02-24T23:09:06.033Z,99313.38
2023-02-24T23:11:40.897Z,99315.78
2023-02-24T23:14:13.505Z,99312.50
2023-02-24T23:16:53.477Z,99313.81
2023-02-24T23:19:23.585Z,99315.09
2023-02-24T23:21:56.493Z,99325.19
2023-02-24T23:24:28.189Z,99309.91
2023-02-24T23:26:57.567Z,99317.53
2023-02-24T23:29:26.748Z,99326.94
2023-02-24T23:31:57.458Z,99329.81
2023-02-24T23:34:24.967Z,99341.25
2023-02-24T23:36:52.003Z,99349.28
2023-02-24T23:39:23.586Z,99348.44
2023-02-24T23:41:56.763Z,99353.41
2023-02-24T23:44:24.061Z,99354.16
2023-02-24T23:46:53.387Z,99342.03
2023-02-24T23:49:22.841Z,99350.84
2023-02-24T23:51:54.542Z,99351.47
2023-02-24T23:54:21.559Z,99357.00
2023-02-24T23:56:50.699Z,99352.13
2023-02-24T23:59:17.700Z,99361.88
